sensor_id;sensor_type;location;lat;lon;timestamp;P1;durP1;ratioP1;P2;durP2;ratioP2
8225;SDS011;4154;48.810;9.012;2024-01-06T00:01:47;2.43;;;1.30;;
8225;SDS011;4154;48.810;9.012;2024-01-06T00:04:13;2.63;;;1.43;;
8225;SDS011;4154;48.810;9.012;2024-01-06T00:06:38;1.60;;;1.30;;
8225;SDS011;4154;48.810;9.012;2024-01-06T00:09:04;2.27;;;1.67;;
8225;SDS011;4154;48.810;9.012;2024-01-06T00:11:30;2.63;;;1.50;;
8225;SDS011;4154;48.810;9.012;2024-01-06T00:13:55;5.53;;;1.50;;
8225;SDS011;4154;48.810;9.012;2024-01-06T00:16:21;2.07;;;1.40;;
8225;SDS011;4154;48.810;9.012;2024-01-06T00:18:46;3.37;;;1.50;;
8225;SDS011;4154;48.810;9.012;2024-01-06T00:21:12;2.47;;;1.33;;
8225;SDS011;4154;48.810;9.012;2024-01-06T00:23:41;2.33;;;1.20;;
8225;SDS011;4154;48.810;9.012;2024-01-06T00:26:08;1.90;;;1.23;;
8225;SDS011;4154;48.810;9.012;2024-01-06T00:28:35;3.73;;;1.40;;
8225;SDS011;4154;48.810;9.012;2024-01-06T00:31:00;3.27;;;1.40;;
8225;SDS011;4154;48.810;9.012;2024-01-06T00:33:27;2.53;;;1.27;;
8225;SDS011;4154;48.810;9.012;2024-01-06T00:35:52;4.13;;;1.40;;
8225;SDS011;4154;48.810;9.012;2024-01-06T00:38:20;2.40;;;1.20;;
8225;SDS011;4154;48.810;9.012;2024-01-06T00:40:45;2.43;;;1.37;;
8225;SDS011;4154;48.810;9.012;2024-01-06T00:43:11;3.30;;;1.57;;
8225;SDS011;4154;48.810;9.012;2024-01-06T00:45:37;1.57;;;1.20;;
8225;SDS011;4154;48.810;9.012;2024-01-06T00:48:03;3.07;;;1.20;;
8225;SDS011;4154;48.810;9.012;2024-01-06T00:50:29;3.47;;;1.40;;
8225;SDS011;4154;48.810;9.012;2024-01-06T00:52:55;2.73;;;1.50;;
8225;SDS011;4154;48.810;9.012;2024-01-06T00:55:21;1.97;;;1.30;;
8225;SDS011;4154;48.810;9.012;2024-01-06T00:57:48;2.13;;;1.20;;
8225;SDS011;4154;48.810;9.012;2024-01-06T01:00:14;2.47;;;1.47;;
8225;SDS011;4154;48.810;9.012;2024-01-06T01:02:40;4.63;;;1.73;;
8225;SDS011;4154;48.810;9.012;2024-01-06T01:05:06;2.80;;;1.40;;
8225;SDS011;4154;48.810;9.012;2024-01-06T01:07:32;3.57;;;1.50;;
8225;SDS011;4154;48.810;9.012;2024-01-06T01:09:58;2.53;;;1.60;;
8225;SDS011;4154;48.810;9.012;2024-01-06T01:12:24;3.00;;;1.40;;
8225;SDS011;4154;48.810;9.012;2024-01-06T01:14:51;2.60;;;2.00;;
8225;SDS011;4154;48.810;9.012;2024-01-06T01:17:17;3.00;;;1.57;;
8225;SDS011;4154;48.810;9.012;2024-01-06T01:19:43;2.23;;;1.30;;
8225;SDS011;4154;48.810;9.012;2024-01-06T01:22:09;3.93;;;1.47;;
8225;SDS011;4154;48.810;9.012;2024-01-06T01:24:35;2.23;;;1.40;;
8225;SDS011;4154;48.810;9.012;2024-01-06T01:27:01;2.10;;;1.40;;
8225;SDS011;4154;48.810;9.012;2024-01-06T01:29:27;2.47;;;1.80;;
8225;SDS011;4154;48.810;9.012;2024-01-06T01:31:53;3.07;;;1.90;;
8225;SDS011;4154;48.810;9.012;2024-01-06T01:34:18;2.67;;;1.90;;
8225;SDS011;4154;48.810;9.012;2024-01-06T01:36:45;2.17;;;1.93;;
8225;SDS011;4154;48.810;9.012;2024-01-06T01:39:11;2.33;;;1.50;;
8225;SDS011;4154;48.810;9.012;2024-01-06T01:41:36;4.00;;;1.37;;
8225;SDS011;4154;48.810;9.012;2024-01-06T01:44:02;3.13;;;1.40;;
8225;SDS011;4154;48.810;9.012;2024-01-06T01:46:28;2.97;;;1.57;;
8225;SDS011;4154;48.810;9.012;2024-01-06T01:48:56;4.20;;;1.50;;
8225;SDS011;4154;48.810;9.012;2024-01-06T01:51:29;3.90;;;1.63;;
8225;SDS011;4154;48.810;9.012;2024-01-06T01:53:57;3.40;;;1.30;;
8225;SDS011;4154;48.810;9.012;2024-01-06T01:56:26;3.27;;;1.30;;
8225;SDS011;4154;48.810;9.012;2024-01-06T01:58:51;2.50;;;1.50;;
8225;SDS011;4154;48.810;9.012;2024-01-06T02:01:18;3.20;;;1.37;;
8225;SDS011;4154;48.810;9.012;2024-01-06T02:03:44;2.27;;;1.20;;
8225;SDS011;4154;48.810;9.012;2024-01-06T02:06:11;4.03;;;1.40;;
8225;SDS011;4154;48.810;9.012;2024-01-06T02:08:37;2.53;;;1.50;;
8225;SDS011;4154;48.810;9.012;2024-01-06T02:11:03;2.77;;;1.40;;
8225;SDS011;4154;48.810;9.012;2024-01-06T02:13:33;3.67;;;1.53;;
8225;SDS011;4154;48.810;9.012;2024-01-06T02:16:00;2.77;;;1.50;;
8225;SDS011;4154;48.810;9.012;2024-01-06T02:18:28;2.60;;;1.30;;
8225;SDS011;4154;48.810;9.012;2024-01-06T02:20:53;3.43;;;1.67;;
8225;SDS011;4154;48.810;9.012;2024-01-06T02:23:23;2.23;;;1.30;;
8225;SDS011;4154;48.810;9.012;2024-01-06T02:25:50;2.23;;;1.60;;
8225;SDS011;4154;48.810;9.012;2024-01-06T02:28:15;2.57;;;1.50;;
8225;SDS011;4154;48.810;9.012;2024-01-06T02:30:41;2.60;;;1.50;;
8225;SDS011;4154;48.810;9.012;2024-01-06T02:33:06;1.73;;;1.30;;
8225;SDS011;4154;48.810;9.012;2024-01-06T02:35:32;2.87;;;1.47;;
8225;SDS011;4154;48.810;9.012;2024-01-06T02:37:58;3.67;;;1.37;;
8225;SDS011;4154;48.810;9.012;2024-01-06T02:40:23;3.87;;;1.47;;
8225;SDS011;4154;48.810;9.012;2024-01-06T02:42:49;4.03;;;1.60;;
8225;SDS011;4154;48.810;9.012;2024-01-06T02:45:16;2.77;;;1.37;;
8225;SDS011;4154;48.810;9.012;2024-01-06T02:47:41;2.33;;;1.50;;
8225;SDS011;4154;48.810;9.012;2024-01-06T02:50:07;3.47;;;1.20;;
8225;SDS011;4154;48.810;9.012;2024-01-06T02:52:33;2.47;;;1.20;;
8225;SDS011;4154;48.810;9.012;2024-01-06T02:54:58;3.07;;;1.27;;
8225;SDS011;4154;48.810;9.012;2024-01-06T02:57:25;2.27;;;1.40;;
8225;SDS011;4154;48.810;9.012;2024-01-06T02:59:52;3.23;;;1.50;;
8225;SDS011;4154;48.810;9.012;2024-01-06T03:02:18;4.13;;;1.30;;
8225;SDS011;4154;48.810;9.012;2024-01-06T03:04:44;3.80;;;1.43;;
8225;SDS011;4154;48.810;9.012;2024-01-06T03:07:10;2.03;;;1.30;;
8225;SDS011;4154;48.810;9.012;2024-01-06T03:09:35;4.53;;;1.63;;
8225;SDS011;4154;48.810;9.012;2024-01-06T03:12:01;2.10;;;1.60;;
8225;SDS011;4154;48.810;9.012;2024-01-06T03:14:27;3.47;;;1.30;;
8225;SDS011;4154;48.810;9.012;2024-01-06T03:16:53;2.43;;;1.47;;
8225;SDS011;4154;48.810;9.012;2024-01-06T03:19:18;3.80;;;1.60;;
8225;SDS011;4154;48.810;9.012;2024-01-06T03:21:44;2.03;;;1.43;;
8225;SDS011;4154;48.810;9.012;2024-01-06T03:24:09;3.90;;;1.50;;
8225;SDS011;4154;48.810;9.012;2024-01-06T03:26:35;3.17;;;1.40;;
8225;SDS011;4154;48.810;9.012;2024-01-06T03:29:01;3.20;;;1.40;;
8225;SDS011;4154;48.810;9.012;2024-01-06T03:31:28;3.43;;;1.50;;
8225;SDS011;4154;48.810;9.012;2024-01-06T03:33:54;3.67;;;1.30;;
8225;SDS011;4154;48.810;9.012;2024-01-06T03:36:21;4.83;;;1.30;;
8225;SDS011;4154;48.810;9.012;2024-01-06T03:38:46;4.83;;;1.53;;
8225;SDS011;4154;48.810;9.012;2024-01-06T03:41:12;2.93;;;1.33;;
8225;SDS011;4154;48.810;9.012;2024-01-06T03:43:38;4.43;;;1.70;;
8225;SDS011;4154;48.810;9.012;2024-01-06T03:46:04;3.27;;;1.50;;
8225;SDS011;4154;48.810;9.012;2024-01-06T03:48:30;1.90;;;1.30;;
8225;SDS011;4154;48.810;9.012;2024-01-06T03:50:57;2.50;;;1.60;;
8225;SDS011;4154;48.810;9.012;2024-01-06T03:53:26;3.40;;;1.60;;
8225;SDS011;4154;48.810;9.012;2024-01-06T03:55:52;1.90;;;1.27;;
8225;SDS011;4154;48.810;9.012;2024-01-06T03:58:17;3.33;;;1.33;;
8225;SDS011;4154;48.810;9.012;2024-01-06T04:00:43;5.90;;;1.50;;
8225;SDS011;4154;48.810;9.012;2024-01-06T04:03:09;3.57;;;1.50;;
8225;SDS011;4154;48.810;9.012;2024-01-06T04:05:34;2.93;;;1.33;;
8225;SDS011;4154;48.810;9.012;2024-01-06T04:08:00;2.70;;;1.40;;
8225;SDS011;4154;48.810;9.012;2024-01-06T04:10:25;2.00;;;1.30;;
8225;SDS011;4154;48.810;9.012;2024-01-06T04:12:51;2.50;;;1.57;;
8225;SDS011;4154;48.810;9.012;2024-01-06T04:15:17;3.07;;;1.43;;
8225;SDS011;4154;48.810;9.012;2024-01-06T04:17:42;2.73;;;1.50;;
8225;SDS011;4154;48.810;9.012;2024-01-06T04:20:10;2.07;;;1.30;;
8225;SDS011;4154;48.810;9.012;2024-01-06T04:22:38;2.87;;;1.37;;
8225;SDS011;4154;48.810;9.012;2024-01-06T04:25:04;3.13;;;1.70;;
8225;SDS011;4154;48.810;9.012;2024-01-06T04:27:30;3.73;;;1.60;;
8225;SDS011;4154;48.810;9.012;2024-01-06T04:29:56;2.10;;;1.40;;
8225;SDS011;4154;48.810;9.012;2024-01-06T04:32:21;3.17;;;1.60;;
8225;SDS011;4154;48.810;9.012;2024-01-06T04:34:47;5.80;;;1.77;;
8225;SDS011;4154;48.810;9.012;2024-01-06T04:37:13;3.43;;;1.60;;
8225;SDS011;4154;48.810;9.012;2024-01-06T04:39:39;2.73;;;1.57;;
8225;SDS011;4154;48.810;9.012;2024-01-06T04:42:05;2.73;;;1.50;;
8225;SDS011;4154;48.810;9.012;2024-01-06T04:44:31;2.90;;;1.60;;
8225;SDS011;4154;48.810;9.012;2024-01-06T04:46:57;3.43;;;1.40;;
8225;SDS011;4154;48.810;9.012;2024-01-06T04:49:23;3.77;;;1.60;;
8225;SDS011;4154;48.810;9.012;2024-01-06T04:51:48;3.27;;;1.60;;
8225;SDS011;4154;48.810;9.012;2024-01-06T04:54:14;4.13;;;1.53;;
8225;SDS011;4154;48.810;9.012;2024-01-06T04:56:40;1.97;;;1.60;;
8225;SDS011;4154;48.810;9.012;2024-01-06T04:59:05;2.43;;;1.60;;
8225;SDS011;4154;48.810;9.012;2024-01-06T05:01:31;3.50;;;1.67;;
8225;SDS011;4154;48.810;9.012;2024-01-06T05:03:57;2.30;;;1.53;;
8225;SDS011;4154;48.810;9.012;2024-01-06T05:06:24;4.40;;;1.60;;
8225;SDS011;4154;48.810;9.012;2024-01-06T05:08:50;3.23;;;1.50;;
8225;SDS011;4154;48.810;9.012;2024-01-06T05:11:16;2.87;;;1.63;;
8225;SDS011;4154;48.810;9.012;2024-01-06T05:13:41;2.33;;;1.50;;
8225;SDS011;4154;48.810;9.012;2024-01-06T05:16:07;3.10;;;1.70;;
8225;SDS011;4154;48.810;9.012;2024-01-06T05:18:34;2.27;;;1.43;;
8225;SDS011;4154;48.810;9.012;2024-01-06T05:21:00;1.93;;;1.40;;
8225;SDS011;4154;48.810;9.012;2024-01-06T05:23:27;4.23;;;1.53;;
8225;SDS011;4154;48.810;9.012;2024-01-06T05:25:52;1.63;;;1.40;;
8225;SDS011;4154;48.810;9.012;2024-01-06T05:28:18;2.23;;;1.30;;
8225;SDS011;4154;48.810;9.012;2024-01-06T05:30:44;3.07;;;1.40;;
8225;SDS011;4154;48.810;9.012;2024-01-06T05:33:10;2.20;;;1.20;;
8225;SDS011;4154;48.810;9.012;2024-01-06T05:35:38;1.60;;;1.40;;
8225;SDS011;4154;48.810;9.012;2024-01-06T05:38:04;2.47;;;1.57;;
8225;SDS011;4154;48.810;9.012;2024-01-06T05:40:30;2.57;;;1.43;;
8225;SDS011;4154;48.810;9.012;2024-01-06T05:42:55;3.73;;;1.30;;
8225;SDS011;4154;48.810;9.012;2024-01-06T05:45:21;2.97;;;1.80;;
8225;SDS011;4154;48.810;9.012;2024-01-06T05:47:48;3.50;;;1.50;;
8225;SDS011;4154;48.810;9.012;2024-01-06T05:50:14;3.13;;;1.60;;
8225;SDS011;4154;48.810;9.012;2024-01-06T05:52:41;2.30;;;1.60;;
8225;SDS011;4154;48.810;9.012;2024-01-06T05:55:08;2.37;;;1.50;;
8225;SDS011;4154;48.810;9.012;2024-01-06T05:57:34;2.40;;;1.50;;
8225;SDS011;4154;48.810;9.012;2024-01-06T06:00:00;3.80;;;1.77;;
8225;SDS011;4154;48.810;9.012;2024-01-06T06:02:26;2.00;;;1.60;;
8225;SDS011;4154;48.810;9.012;2024-01-06T06:04:52;2.10;;;1.90;;
8225;SDS011;4154;48.810;9.012;2024-01-06T06:07:18;2.57;;;1.93;;
8225;SDS011;4154;48.810;9.012;2024-01-06T06:09:44;4.43;;;2.00;;
8225;SDS011;4154;48.810;9.012;2024-01-06T06:12:12;2.50;;;2.07;;
8225;SDS011;4154;48.810;9.012;2024-01-06T06:14:38;2.67;;;1.80;;
8225;SDS011;4154;48.810;9.012;2024-01-06T06:17:04;2.63;;;1.90;;
8225;SDS011;4154;48.810;9.012;2024-01-06T06:19:31;3.63;;;2.00;;
8225;SDS011;4154;48.810;9.012;2024-01-06T06:21:56;2.10;;;1.73;;
8225;SDS011;4154;48.810;9.012;2024-01-06T06:24:23;1.73;;;1.60;;
8225;SDS011;4154;48.810;9.012;2024-01-06T06:26:49;1.80;;;1.70;;
8225;SDS011;4154;48.810;9.012;2024-01-06T06:29:14;2.30;;;1.67;;
8225;SDS011;4154;48.810;9.012;2024-01-06T06:31:40;2.70;;;1.73;;
8225;SDS011;4154;48.810;9.012;2024-01-06T06:34:07;3.63;;;1.73;;
8225;SDS011;4154;48.810;9.012;2024-01-06T06:36:34;2.10;;;1.90;;
8225;SDS011;4154;48.810;9.012;2024-01-06T06:39:00;3.27;;;1.80;;
8225;SDS011;4154;48.810;9.012;2024-01-06T06:41:26;2.73;;;1.80;;
8225;SDS011;4154;48.810;9.012;2024-01-06T06:43:52;2.73;;;1.90;;
8225;SDS011;4154;48.810;9.012;2024-01-06T06:46:17;2.83;;;1.60;;
8225;SDS011;4154;48.810;9.012;2024-01-06T06:48:43;2.97;;;1.90;;
8225;SDS011;4154;48.810;9.012;2024-01-06T06:51:10;2.40;;;1.90;;
8225;SDS011;4154;48.810;9.012;2024-01-06T06:53:36;2.17;;;1.70;;
8225;SDS011;4154;48.810;9.012;2024-01-06T06:56:01;2.53;;;1.63;;
8225;SDS011;4154;48.810;9.012;2024-01-06T06:58:27;2.90;;;1.43;;
8225;SDS011;4154;48.810;9.012;2024-01-06T07:00:53;2.73;;;1.40;;
8225;SDS011;4154;48.810;9.012;2024-01-06T07:03:19;1.67;;;1.43;;
8225;SDS011;4154;48.810;9.012;2024-01-06T07:05:45;2.53;;;1.53;;
8225;SDS011;4154;48.810;9.012;2024-01-06T07:08:11;2.83;;;2.00;;
8225;SDS011;4154;48.810;9.012;2024-01-06T07:10:38;2.60;;;1.80;;
8225;SDS011;4154;48.810;9.012;2024-01-06T07:13:04;2.20;;;1.80;;
8225;SDS011;4154;48.810;9.012;2024-01-06T07:15:30;3.67;;;1.70;;
8225;SDS011;4154;48.810;9.012;2024-01-06T07:17:56;2.07;;;1.30;;
8225;SDS011;4154;48.810;9.012;2024-01-06T07:20:21;1.43;;;1.33;;
8225;SDS011;4154;48.810;9.012;2024-01-06T07:22:47;2.13;;;1.33;;
8225;SDS011;4154;48.810;9.012;2024-01-06T07:25:12;1.50;;;1.40;;
8225;SDS011;4154;48.810;9.012;2024-01-06T07:27:38;1.80;;;1.37;;
8225;SDS011;4154;48.810;9.012;2024-01-06T07:30:04;2.70;;;1.50;;
8225;SDS011;4154;48.810;9.012;2024-01-06T07:32:33;2.40;;;1.63;;
8225;SDS011;4154;48.810;9.012;2024-01-06T07:34:59;1.40;;;1.30;;
8225;SDS011;4154;48.810;9.012;2024-01-06T07:37:24;2.97;;;1.50;;
8225;SDS011;4154;48.810;9.012;2024-01-06T07:39:50;2.37;;;1.60;;
8225;SDS011;4154;48.810;9.012;2024-01-06T07:42:16;2.80;;;1.77;;
8225;SDS011;4154;48.810;9.012;2024-01-06T07:44:43;1.70;;;1.60;;
8225;SDS011;4154;48.810;9.012;2024-01-06T07:47:09;2.67;;;1.90;;
8225;SDS011;4154;48.810;9.012;2024-01-06T07:49:35;2.00;;;1.80;;
8225;SDS011;4154;48.810;9.012;2024-01-06T07:52:01;2.50;;;1.90;;
8225;SDS011;4154;48.810;9.012;2024-01-06T07:54:27;1.90;;;1.70;;
8225;SDS011;4154;48.810;9.012;2024-01-06T07:56:53;1.97;;;1.70;;
8225;SDS011;4154;48.810;9.012;2024-01-06T07:59:19;2.13;;;1.73;;
8225;SDS011;4154;48.810;9.012;2024-01-06T08:01:44;1.90;;;1.70;;
8225;SDS011;4154;48.810;9.012;2024-01-06T08:04:10;2.60;;;1.93;;
8225;SDS011;4154;48.810;9.012;2024-01-06T08:06:35;2.00;;;1.50;;
8225;SDS011;4154;48.810;9.012;2024-01-06T08:09:01;1.90;;;1.70;;
8225;SDS011;4154;48.810;9.012;2024-01-06T08:11:28;2.30;;;1.63;;
8225;SDS011;4154;48.810;9.012;2024-01-06T08:13:54;1.77;;;1.67;;
8225;SDS011;4154;48.810;9.012;2024-01-06T08:16:19;1.90;;;1.80;;
8225;SDS011;4154;48.810;9.012;2024-01-06T08:18:46;1.93;;;1.70;;
8225;SDS011;4154;48.810;9.012;2024-01-06T08:21:11;1.93;;;1.80;;
8225;SDS011;4154;48.810;9.012;2024-01-06T08:23:37;1.90;;;1.77;;
8225;SDS011;4154;48.810;9.012;2024-01-06T08:26:03;2.10;;;1.60;;
8225;SDS011;4154;48.810;9.012;2024-01-06T08:28:30;2.27;;;1.80;;
8225;SDS011;4154;48.810;9.012;2024-01-06T08:30:55;2.47;;;1.60;;
8225;SDS011;4154;48.810;9.012;2024-01-06T08:33:21;2.90;;;1.67;;
8225;SDS011;4154;48.810;9.012;2024-01-06T08:35:47;2.23;;;1.60;;
8225;SDS011;4154;48.810;9.012;2024-01-06T08:38:13;1.60;;;1.33;;
8225;SDS011;4154;48.810;9.012;2024-01-06T08:40:39;1.30;;;1.20;;
8225;SDS011;4154;48.810;9.012;2024-01-06T08:43:05;1.37;;;1.27;;
8225;SDS011;4154;48.810;9.012;2024-01-06T08:45:31;2.03;;;1.47;;
8225;SDS011;4154;48.810;9.012;2024-01-06T08:47:56;1.50;;;1.40;;
8225;SDS011;4154;48.810;9.012;2024-01-06T08:50:22;1.60;;;1.50;;
8225;SDS011;4154;48.810;9.012;2024-01-06T08:52:48;1.43;;;1.33;;
8225;SDS011;4154;48.810;9.012;2024-01-06T08:55:13;1.77;;;1.40;;
8225;SDS011;4154;48.810;9.012;2024-01-06T08:57:39;1.87;;;1.40;;
8225;SDS011;4154;48.810;9.012;2024-01-06T09:00:05;1.40;;;1.30;;
8225;SDS011;4154;48.810;9.012;2024-01-06T09:02:34;1.80;;;1.30;;
8225;SDS011;4154;48.810;9.012;2024-01-06T09:04:59;1.57;;;1.40;;
8225;SDS011;4154;48.810;9.012;2024-01-06T09:07:25;3.00;;;1.43;;
8225;SDS011;4154;48.810;9.012;2024-01-06T09:09:50;1.10;;;1.10;;
8225;SDS011;4154;48.810;9.012;2024-01-06T09:12:16;1.93;;;1.30;;
8225;SDS011;4154;48.810;9.012;2024-01-06T09:14:42;1.63;;;1.27;;
8225;SDS011;4154;48.810;9.012;2024-01-06T09:17:07;1.80;;;1.57;;
8225;SDS011;4154;48.810;9.012;2024-01-06T09:19:33;1.70;;;1.60;;
8225;SDS011;4154;48.810;9.012;2024-01-06T09:21:59;1.60;;;1.43;;
8225;SDS011;4154;48.810;9.012;2024-01-06T09:24:25;1.50;;;1.20;;
8225;SDS011;4154;48.810;9.012;2024-01-06T09:26:51;1.10;;;1.00;;
8225;SDS011;4154;48.810;9.012;2024-01-06T09:29:16;2.30;;;1.10;;
8225;SDS011;4154;48.810;9.012;2024-01-06T09:31:42;0.90;;;0.90;;
8225;SDS011;4154;48.810;9.012;2024-01-06T09:34:11;1.00;;;1.00;;
8225;SDS011;4154;48.810;9.012;2024-01-06T09:36:37;1.33;;;0.80;;
8225;SDS011;4154;48.810;9.012;2024-01-06T09:39:03;1.53;;;0.97;;
8225;SDS011;4154;48.810;9.012;2024-01-06T09:41:30;0.90;;;0.90;;
8225;SDS011;4154;48.810;9.012;2024-01-06T09:43:57;1.37;;;1.00;;
8225;SDS011;4154;48.810;9.012;2024-01-06T09:46:24;0.90;;;0.90;;
8225;SDS011;4154;48.810;9.012;2024-01-06T09:48:52;1.30;;;1.13;;
8225;SDS011;4154;48.810;9.012;2024-01-06T09:51:19;1.67;;;1.27;;
8225;SDS011;4154;48.810;9.012;2024-01-06T09:53:48;1.47;;;1.30;;
8225;SDS011;4154;48.810;9.012;2024-01-06T09:56:21;0.90;;;0.90;;
8225;SDS011;4154;48.810;9.012;2024-01-06T09:58:50;1.30;;;1.20;;
8225;SDS011;4154;48.810;9.012;2024-01-06T10:01:20;1.23;;;1.00;;
8225;SDS011;4154;48.810;9.012;2024-01-06T10:03:46;1.20;;;1.10;;
8225;SDS011;4154;48.810;9.012;2024-01-06T10:06:13;1.17;;;1.17;;
8225;SDS011;4154;48.810;9.012;2024-01-06T10:08:43;1.30;;;1.10;;
8225;SDS011;4154;48.810;9.012;2024-01-06T10:11:13;1.70;;;1.37;;
8225;SDS011;4154;48.810;9.012;2024-01-06T10:13:39;1.83;;;1.07;;
8225;SDS011;4154;48.810;9.012;2024-01-06T10:16:05;1.10;;;1.10;;
8225;SDS011;4154;48.810;9.012;2024-01-06T10:18:31;1.27;;;1.13;;
8225;SDS011;4154;48.810;9.012;2024-01-06T10:20:59;1.73;;;1.20;;
8225;SDS011;4154;48.810;9.012;2024-01-06T10:23:28;1.40;;;1.30;;
8225;SDS011;4154;48.810;9.012;2024-01-06T10:25:54;1.60;;;1.50;;
8225;SDS011;4154;48.810;9.012;2024-01-06T10:28:21;1.37;;;1.27;;
8225;SDS011;4154;48.810;9.012;2024-01-06T10:30:53;1.50;;;1.40;;
8225;SDS011;4154;48.810;9.012;2024-01-06T10:33:21;1.87;;;1.50;;
8225;SDS011;4154;48.810;9.012;2024-01-06T10:35:51;1.63;;;1.40;;
8225;SDS011;4154;48.810;9.012;2024-01-06T10:38:20;1.40;;;1.30;;
8225;SDS011;4154;48.810;9.012;2024-01-06T10:40:59;1.60;;;1.40;;
8225;SDS011;4154;48.810;9.012;2024-01-06T10:43:35;1.50;;;1.40;;
8225;SDS011;4154;48.810;9.012;2024-01-06T10:46:03;1.50;;;1.40;;
8225;SDS011;4154;48.810;9.012;2024-01-06T10:48:33;1.60;;;1.50;;
8225;SDS011;4154;48.810;9.012;2024-01-06T10:51:00;1.50;;;1.40;;
8225;SDS011;4154;48.810;9.012;2024-01-06T10:53:32;2.23;;;1.40;;
8225;SDS011;4154;48.810;9.012;2024-01-06T10:56:02;1.67;;;1.47;;
8225;SDS011;4154;48.810;9.012;2024-01-06T10:58:30;1.70;;;1.60;;
8225;SDS011;4154;48.810;9.012;2024-01-06T11:00:58;2.00;;;1.80;;
8225;SDS011;4154;48.810;9.012;2024-01-06T11:03:25;1.73;;;1.63;;
8225;SDS011;4154;48.810;9.012;2024-01-06T11:05:54;1.33;;;1.23;;
8225;SDS011;4154;48.810;9.012;2024-01-06T11:08:22;1.57;;;1.47;;
8225;SDS011;4154;48.810;9.012;2024-01-06T11:10:50;1.60;;;1.50;;
8225;SDS011;4154;48.810;9.012;2024-01-06T11:13:22;1.60;;;1.50;;
8225;SDS011;4154;48.810;9.012;2024-01-06T11:15:49;1.63;;;1.53;;
8225;SDS011;4154;48.810;9.012;2024-01-06T11:18:36;1.80;;;1.70;;
8225;SDS011;4154;48.810;9.012;2024-01-06T11:26:49;1.70;;;1.60;;
8225;SDS011;4154;48.810;9.012;2024-01-06T11:29:21;1.73;;;1.63;;
8225;SDS011;4154;48.810;9.012;2024-01-06T11:34:52;1.87;;;1.70;;
8225;SDS011;4154;48.810;9.012;2024-01-06T11:38:03;1.77;;;1.67;;
8225;SDS011;4154;48.810;9.012;2024-01-06T11:43:09;2.17;;;1.57;;
8225;SDS011;4154;48.810;9.012;2024-01-06T11:45:37;1.90;;;1.80;;
8225;SDS011;4154;48.810;9.012;2024-01-06T11:48:10;1.90;;;1.80;;
8225;SDS011;4154;48.810;9.012;2024-01-06T11:50:39;1.63;;;1.53;;
8225;SDS011;4154;48.810;9.012;2024-01-06T11:53:07;2.00;;;1.80;;
8225;SDS011;4154;48.810;9.012;2024-01-06T11:55:38;1.83;;;1.73;;
8225;SDS011;4154;48.810;9.012;2024-01-06T11:58:04;2.00;;;1.60;;
8225;SDS011;4154;48.810;9.012;2024-01-06T12:00:31;2.03;;;1.83;;
8225;SDS011;4154;48.810;9.012;2024-01-06T12:03:04;1.93;;;1.83;;
8225;SDS011;4154;48.810;9.012;2024-01-06T12:05:29;1.90;;;1.80;;
8225;SDS011;4154;48.810;9.012;2024-01-06T12:07:56;2.03;;;1.83;;
8225;SDS011;4154;48.810;9.012;2024-01-06T12:10:29;2.17;;;2.07;;
8225;SDS011;4154;48.810;9.012;2024-01-06T12:12:56;2.37;;;2.17;;
8225;SDS011;4154;48.810;9.012;2024-01-06T12:15:26;2.30;;;2.10;;
8225;SDS011;4154;48.810;9.012;2024-01-06T12:17:54;2.07;;;1.97;;
8225;SDS011;4154;48.810;9.012;2024-01-06T12:20:21;2.00;;;1.90;;
8225;SDS011;4154;48.810;9.012;2024-01-06T12:22:48;1.90;;;1.80;;
8225;SDS011;4154;48.810;9.012;2024-01-06T12:25:20;2.07;;;1.97;;
8225;SDS011;4154;48.810;9.012;2024-01-06T12:27:47;1.93;;;1.83;;
8225;SDS011;4154;48.810;9.012;2024-01-06T12:30:19;2.53;;;2.17;;
8225;SDS011;4154;48.810;9.012;2024-01-06T12:32:48;2.20;;;2.03;;
8225;SDS011;4154;48.810;9.012;2024-01-06T12:35:15;2.20;;;2.00;;
8225;SDS011;4154;48.810;9.012;2024-01-06T12:37:42;2.00;;;1.90;;
8225;SDS011;4154;48.810;9.012;2024-01-06T12:40:10;2.27;;;2.17;;
8225;SDS011;4154;48.810;9.012;2024-01-06T12:42:39;2.33;;;2.20;;
8225;SDS011;4154;48.810;9.012;2024-01-06T12:45:07;2.43;;;2.23;;
8225;SDS011;4154;48.810;9.012;2024-01-06T12:47:33;2.40;;;2.30;;
8225;SDS011;4154;48.810;9.012;2024-01-06T12:49:59;2.53;;;2.33;;
8225;SDS011;4154;48.810;9.012;2024-01-06T12:52:25;2.80;;;2.37;;
8225;SDS011;4154;48.810;9.012;2024-01-06T12:54:51;2.77;;;2.57;;
8225;SDS011;4154;48.810;9.012;2024-01-06T12:57:17;3.57;;;2.83;;
8225;SDS011;4154;48.810;9.012;2024-01-06T12:59:43;2.80;;;2.60;;
8225;SDS011;4154;48.810;9.012;2024-01-06T13:02:09;2.50;;;2.30;;
8225;SDS011;4154;48.810;9.012;2024-01-06T13:04:34;2.93;;;2.63;;
8225;SDS011;4154;48.810;9.012;2024-01-06T13:07:00;2.50;;;2.30;;
8225;SDS011;4154;48.810;9.012;2024-01-06T13:09:26;2.60;;;2.40;;
8225;SDS011;4154;48.810;9.012;2024-01-06T13:11:53;2.57;;;2.37;;
8225;SDS011;4154;48.810;9.012;2024-01-06T13:14:21;2.50;;;2.30;;
8225;SDS011;4154;48.810;9.012;2024-01-06T13:16:46;2.40;;;2.20;;
8225;SDS011;4154;48.810;9.012;2024-01-06T13:19:12;2.63;;;2.43;;
8225;SDS011;4154;48.810;9.012;2024-01-06T13:21:38;2.83;;;2.43;;
8225;SDS011;4154;48.810;9.012;2024-01-06T13:24:05;2.63;;;2.43;;
8225;SDS011;4154;48.810;9.012;2024-01-06T13:26:32;2.60;;;2.40;;
8225;SDS011;4154;48.810;9.012;2024-01-06T13:28:57;2.90;;;2.67;;
8225;SDS011;4154;48.810;9.012;2024-01-06T13:31:24;2.73;;;2.53;;
8225;SDS011;4154;48.810;9.012;2024-01-06T13:33:50;2.63;;;2.43;;
8225;SDS011;4154;48.810;9.012;2024-01-06T13:36:19;2.23;;;2.10;;
8225;SDS011;4154;48.810;9.012;2024-01-06T13:38:45;2.80;;;2.40;;
8225;SDS011;4154;48.810;9.012;2024-01-06T13:41:11;2.40;;;2.13;;
8225;SDS011;4154;48.810;9.012;2024-01-06T13:43:37;3.07;;;2.50;;
8225;SDS011;4154;48.810;9.012;2024-01-06T13:46:03;2.60;;;2.40;;
8225;SDS011;4154;48.810;9.012;2024-01-06T13:48:29;2.97;;;2.50;;
8225;SDS011;4154;48.810;9.012;2024-01-06T13:50:55;2.70;;;2.40;;
8225;SDS011;4154;48.810;9.012;2024-01-06T13:53:22;2.57;;;2.37;;
8225;SDS011;4154;48.810;9.012;2024-01-06T13:55:47;2.73;;;2.53;;
8225;SDS011;4154;48.810;9.012;2024-01-06T13:58:13;3.03;;;2.70;;
8225;SDS011;4154;48.810;9.012;2024-01-06T14:00:39;2.70;;;2.50;;
8225;SDS011;4154;48.810;9.012;2024-01-06T14:03:05;2.47;;;2.33;;
8225;SDS011;4154;48.810;9.012;2024-01-06T14:05:31;2.77;;;2.57;;
8225;SDS011;4154;48.810;9.012;2024-01-06T14:07:58;2.83;;;2.63;;
8225;SDS011;4154;48.810;9.012;2024-01-06T14:10:24;3.27;;;2.97;;
8225;SDS011;4154;48.810;9.012;2024-01-06T14:12:49;2.80;;;2.60;;
8225;SDS011;4154;48.810;9.012;2024-01-06T14:15:15;3.30;;;3.00;;
8225;SDS011;4154;48.810;9.012;2024-01-06T14:17:41;3.57;;;3.27;;
8225;SDS011;4154;48.810;9.012;2024-01-06T14:20:14;3.50;;;3.20;;
8225;SDS011;4154;48.810;9.012;2024-01-06T14:22:43;3.13;;;2.93;;
8225;SDS011;4154;48.810;9.012;2024-01-06T14:25:10;3.77;;;3.47;;
8225;SDS011;4154;48.810;9.012;2024-01-06T14:27:37;3.33;;;3.10;;
8225;SDS011;4154;48.810;9.012;2024-01-06T14:30:03;4.00;;;3.63;;
8225;SDS011;4154;48.810;9.012;2024-01-06T14:32:29;4.10;;;3.70;;
8225;SDS011;4154;48.810;9.012;2024-01-06T14:34:54;4.03;;;3.70;;
8225;SDS011;4154;48.810;9.012;2024-01-06T14:37:20;4.33;;;3.93;;
8225;SDS011;4154;48.810;9.012;2024-01-06T14:39:46;4.43;;;3.40;;
8225;SDS011;4154;48.810;9.012;2024-01-06T14:42:12;3.97;;;3.67;;
8225;SDS011;4154;48.810;9.012;2024-01-06T14:44:37;4.40;;;4.00;;
8225;SDS011;4154;48.810;9.012;2024-01-06T14:47:03;3.70;;;3.40;;
8225;SDS011;4154;48.810;9.012;2024-01-06T14:49:30;4.20;;;3.83;;
8225;SDS011;4154;48.810;9.012;2024-01-06T14:51:55;4.43;;;4.00;;
8225;SDS011;4154;48.810;9.012;2024-01-06T14:54:21;4.30;;;3.90;;
8225;SDS011;4154;48.810;9.012;2024-01-06T14:56:46;4.47;;;4.00;;
8225;SDS011;4154;48.810;9.012;2024-01-06T14:59:12;4.60;;;4.20;;
8225;SDS011;4154;48.810;9.012;2024-01-06T15:01:41;4.63;;;4.23;;
8225;SDS011;4154;48.810;9.012;2024-01-06T15:04:09;4.50;;;4.10;;
8225;SDS011;4154;48.810;9.012;2024-01-06T15:06:34;4.77;;;4.37;;
8225;SDS011;4154;48.810;9.012;2024-01-06T15:09:00;4.20;;;3.90;;
8225;SDS011;4154;48.810;9.012;2024-01-06T15:11:26;4.67;;;4.27;;
8225;SDS011;4154;48.810;9.012;2024-01-06T15:13:52;3.97;;;3.67;;
8225;SDS011;4154;48.810;9.012;2024-01-06T15:16:18;4.60;;;4.20;;
8225;SDS011;4154;48.810;9.012;2024-01-06T15:18:43;4.37;;;3.97;;
8225;SDS011;4154;48.810;9.012;2024-01-06T15:21:09;5.27;;;4.33;;
8225;SDS011;4154;48.810;9.012;2024-01-06T15:23:36;4.57;;;4.10;;